sensor_id;sensor_type;location;lat;lon;timestamp;P1;durP1;ratioP1;P2;durP2;ratioP2
17686;SDS011;8962;52.538;13.266;2023-03-01T00:01:01;27.23;;;13.40;;
17686;SDS011;8962;52.538;13.266;2023-03-01T00:03:33;23.38;;;13.25;;
17686;SDS011;8962;52.538;13.266;2023-03-01T00:06:04;22.48;;;13.43;;
17686;SDS011;8962;52.538;13.266;2023-03-01T00:08:33;23.50;;;12.68;;
17686;SDS011;8962;52.538;13.266;2023-03-01T00:11:03;25.58;;;13.85;;
17686;SDS011;8962;52.538;13.266;2023-03-01T00:13:33;22.90;;;13.48;;
17686;SDS011;8962;52.538;13.266;2023-03-01T00:16:01;24.73;;;13.73;;
17686;SDS011;8962;52.538;13.266;2023-03-01T00:18:29;24.90;;;12.90;;
17686;SDS011;8962;52.538;13.266;2023-03-01T00:20:56;22.00;;;13.70;;
17686;SDS011;8962;52.538;13.266;2023-03-01T00:23:26;27.00;;;14.10;;
17686;SDS011;8962;52.538;13.266;2023-03-01T00:25:53;26.77;;;13.77;;
17686;SDS011;8962;52.538;13.266;2023-03-01T00:28:20;21.90;;;13.27;;
17686;SDS011;8962;52.538;13.266;2023-03-01T00:30:48;23.15;;;13.38;;
17686;SDS011;8962;52.538;13.266;2023-03-01T00:33:15;22.33;;;12.38;;
17686;SDS011;8962;52.538;13.266;2023-03-01T00:35:45;23.20;;;13.20;;
17686;SDS011;8962;52.538;13.266;2023-03-01T00:38:13;24.90;;;12.93;;
17686;SDS011;8962;52.538;13.266;2023-03-01T00:40:42;26.83;;;13.63;;
17686;SDS011;8962;52.538;13.266;2023-03-01T00:43:09;24.85;;;14.60;;
17686;SDS011;8962;52.538;13.266;2023-03-01T00:45:36;25.25;;;14.18;;
17686;SDS011;8962;52.538;13.266;2023-03-01T00:48:04;30.15;;;13.65;;
17686;SDS011;8962;52.538;13.266;2023-03-01T00:50:32;25.10;;;13.50;;
17686;SDS011;8962;52.538;13.266;2023-03-01T00:53:01;24.83;;;13.00;;
17686;SDS011;8962;52.538;13.266;2023-03-01T00:55:30;24.13;;;13.75;;
17686;SDS011;8962;52.538;13.266;2023-03-01T00:57:58;23.88;;;13.88;;
17686;SDS011;8962;52.538;13.266;2023-03-01T01:00:25;24.23;;;13.98;;
17686;SDS011;8962;52.538;13.266;2023-03-01T01:02:55;22.10;;;12.88;;
17686;SDS011;8962;52.538;13.266;2023-03-01T01:05:23;25.30;;;13.52;;
17686;SDS011;8962;52.538;13.266;2023-03-01T01:07:50;25.60;;;13.70;;
17686;SDS011;8962;52.538;13.266;2023-03-01T01:10:17;21.92;;;13.88;;
17686;SDS011;8962;52.538;13.266;2023-03-01T01:12:44;23.63;;;13.25;;
17686;SDS011;8962;52.538;13.266;2023-03-01T01:15:13;26.45;;;13.98;;
17686;SDS011;8962;52.538;13.266;2023-03-01T01:17:42;25.25;;;14.07;;
17686;SDS011;8962;52.538;13.266;2023-03-01T01:20:10;24.88;;;13.57;;
17686;SDS011;8962;52.538;13.266;2023-03-01T01:22:38;27.50;;;14.70;;
17686;SDS011;8962;52.538;13.266;2023-03-01T01:25:05;26.45;;;14.30;;
17686;SDS011;8962;52.538;13.266;2023-03-01T01:27:33;23.17;;;13.70;;
17686;SDS011;8962;52.538;13.266;2023-03-01T01:30:00;23.65;;;13.55;;
17686;SDS011;8962;52.538;13.266;2023-03-01T01:32:31;26.30;;;13.75;;
17686;SDS011;8962;52.538;13.266;2023-03-01T01:34:58;23.17;;;13.60;;
17686;SDS011;8962;52.538;13.266;2023-03-01T01:37:25;26.88;;;14.60;;
17686;SDS011;8962;52.538;13.266;2023-03-01T01:39:58;23.23;;;13.63;;
17686;SDS011;8962;52.538;13.266;2023-03-01T01:42:29;24.40;;;13.73;;
17686;SDS011;8962;52.538;13.266;2023-03-01T01:45:24;23.15;;;13.95;;
17686;SDS011;8962;52.538;13.266;2023-03-01T01:48:00;23.50;;;13.95;;
17686;SDS011;8962;52.538;13.266;2023-03-01T01:50:31;24.45;;;14.02;;
17686;SDS011;8962;52.538;13.266;2023-03-01T01:53:04;24.58;;;13.60;;
17686;SDS011;8962;52.538;13.266;2023-03-01T01:55:33;28.33;;;14.93;;
17686;SDS011;8962;52.538;13.266;2023-03-01T01:58:04;25.80;;;15.15;;
17686;SDS011;8962;52.538;13.266;2023-03-01T02:00:34;25.05;;;14.13;;
17686;SDS011;8962;52.538;13.266;2023-03-01T02:03:08;23.58;;;13.63;;
17686;SDS011;8962;52.538;13.266;2023-03-01T02:05:38;23.55;;;14.43;;
17686;SDS011;8962;52.538;13.266;2023-03-01T02:08:11;22.85;;;13.60;;
17686;SDS011;8962;52.538;13.266;2023-03-01T02:10:40;24.15;;;14.18;;
17686;SDS011;8962;52.538;13.266;2023-03-01T02:13:09;22.17;;;13.23;;
17686;SDS011;8962;52.538;13.266;2023-03-01T02:15:38;23.77;;;14.15;;
17686;SDS011;8962;52.538;13.266;2023-03-01T02:18:12;23.60;;;13.57;;
17686;SDS011;8962;52.538;13.266;2023-03-01T02:20:44;23.38;;;13.32;;
17686;SDS011;8962;52.538;13.266;2023-03-01T02:23:21;24.42;;;14.25;;
17686;SDS011;8962;52.538;13.266;2023-03-01T02:25:51;22.63;;;14.02;;
17686;SDS011;8962;52.538;13.266;2023-03-01T02:28:26;25.10;;;14.77;;
17686;SDS011;8962;52.538;13.266;2023-03-01T02:30:56;28.95;;;14.90;;
17686;SDS011;8962;52.538;13.266;2023-03-01T02:33:42;26.20;;;14.65;;
17686;SDS011;8962;52.538;13.266;2023-03-01T02:36:15;27.27;;;15.27;;
17686;SDS011;8962;52.538;13.266;2023-03-01T02:38:46;24.73;;;14.32;;
17686;SDS011;8962;52.538;13.266;2023-03-01T02:41:16;24.80;;;14.23;;
17686;SDS011;8962;52.538;13.266;2023-03-01T02:43:47;23.73;;;13.60;;
17686;SDS011;8962;52.538;13.266;2023-03-01T02:46:14;25.27;;;14.45;;
17686;SDS011;8962;52.538;13.266;2023-03-01T02:48:43;24.55;;;14.95;;
17686;SDS011;8962;52.538;13.266;2023-03-01T02:54:08;26.27;;;14.45;;
17686;SDS011;8962;52.538;13.266;2023-03-01T02:56:41;23.33;;;14.07;;
17686;SDS011;8962;52.538;13.266;2023-03-01T02:59:12;26.15;;;13.95;;
17686;SDS011;8962;52.538;13.266;2023-03-01T03:01:41;23.98;;;14.15;;
17686;SDS011;8962;52.538;13.266;2023-03-01T03:04:11;24.30;;;14.75;;
17686;SDS011;8962;52.538;13.266;2023-03-01T03:06:43;24.65;;;13.93;;
17686;SDS011;8962;52.538;13.266;2023-03-01T03:09:11;24.50;;;14.65;;
17686;SDS011;8962;52.538;13.266;2023-03-01T03:11:39;24.10;;;14.05;;
17686;SDS011;8962;52.538;13.266;2023-03-01T03:14:08;25.67;;;14.65;;
17686;SDS011;8962;52.538;13.266;2023-03-01T03:16:42;25.65;;;13.93;;
17686;SDS011;8962;52.538;13.266;2023-03-01T03:19:11;25.50;;;14.30;;
17686;SDS011;8962;52.538;13.266;2023-03-01T03:21:38;24.63;;;14.10;;
17686;SDS011;8962;52.538;13.266;2023-03-01T03:24:06;29.95;;;15.43;;
17686;SDS011;8962;52.538;13.266;2023-03-01T03:26:33;24.58;;;14.88;;
17686;SDS011;8962;52.538;13.266;2023-03-01T03:29:00;28.30;;;14.88;;
17686;SDS011;8962;52.538;13.266;2023-03-01T03:31:29;24.75;;;14.85;;
17686;SDS011;8962;52.538;13.266;2023-03-01T03:33:57;27.75;;;14.57;;
17686;SDS011;8962;52.538;13.266;2023-03-01T03:36:25;26.02;;;14.68;;
17686;SDS011;8962;52.538;13.266;2023-03-01T03:38:52;25.10;;;14.10;;
17686;SDS011;8962;52.538;13.266;2023-03-01T03:41:20;22.65;;;13.85;;
17686;SDS011;8962;52.538;13.266;2023-03-01T03:43:47;27.60;;;14.35;;
17686;SDS011;8962;52.538;13.266;2023-03-01T03:46:14;27.70;;;15.38;;
17686;SDS011;8962;52.538;13.266;2023-03-01T03:48:42;26.13;;;15.27;;
17686;SDS011;8962;52.538;13.266;2023-03-01T03:51:13;28.55;;;14.38;;
17686;SDS011;8962;52.538;13.266;2023-03-01T03:53:43;26.02;;;14.82;;
17686;SDS011;8962;52.538;13.266;2023-03-01T03:56:11;25.65;;;14.30;;
17686;SDS011;8962;52.538;13.266;2023-03-01T03:58:38;28.27;;;14.25;;
17686;SDS011;8962;52.538;13.266;2023-03-01T04:01:06;27.55;;;15.15;;
17686;SDS011;8962;52.538;13.266;2023-03-01T04:03:34;26.23;;;14.32;;
17686;SDS011;8962;52.538;13.266;2023-03-01T04:06:02;25.55;;;14.63;;
17686;SDS011;8962;52.538;13.266;2023-03-01T04:08:32;28.63;;;15.68;;
17686;SDS011;8962;52.538;13.266;2023-03-01T04:11:00;34.15;;;15.88;;
17686;SDS011;8962;52.538;13.266;2023-03-01T04:13:49;29.58;;;16.80;;
17686;SDS011;8962;52.538;13.266;2023-03-01T04:16:17;25.13;;;14.60;;
17686;SDS011;8962;52.538;13.266;2023-03-01T04:18:45;28.20;;;15.75;;
17686;SDS011;8962;52.538;13.266;2023-03-01T04:21:13;29.10;;;15.57;;
17686;SDS011;8962;52.538;13.266;2023-03-01T04:23:43;28.33;;;15.35;;
17686;SDS011;8962;52.538;13.266;2023-03-01T04:26:10;27.15;;;14.57;;
17686;SDS011;8962;52.538;13.266;2023-03-01T04:28:37;26.73;;;15.18;;
17686;SDS011;8962;52.538;13.266;2023-03-01T04:31:11;32.55;;;15.05;;
17686;SDS011;8962;52.538;13.266;2023-03-01T04:33:40;29.85;;;15.02;;
17686;SDS011;8962;52.538;13.266;2023-03-01T04:36:09;27.35;;;15.07;;
17686;SDS011;8962;52.538;13.266;2023-03-01T04:38:37;33.60;;;16.55;;
17686;SDS011;8962;52.538;13.266;2023-03-01T04:41:08;28.15;;;15.73;;
17686;SDS011;8962;52.538;13.266;2023-03-01T04:43:36;25.27;;;14.73;;
17686;SDS011;8962;52.538;13.266;2023-03-01T04:46:06;26.77;;;14.82;;
17686;SDS011;8962;52.538;13.266;2023-03-01T04:48:35;26.90;;;15.52;;
17686;SDS011;8962;52.538;13.266;2023-03-01T04:51:02;28.15;;;15.35;;
17686;SDS011;8962;52.538;13.266;2023-03-01T04:53:31;28.27;;;16.15;;
17686;SDS011;8962;52.538;13.266;2023-03-01T04:56:01;32.33;;;15.68;;
17686;SDS011;8962;52.538;13.266;2023-03-01T04:58:30;26.00;;;14.43;;
17686;SDS011;8962;52.538;13.266;2023-03-01T05:00:57;27.23;;;15.32;;
17686;SDS011;8962;52.538;13.266;2023-03-01T05:03:25;29.15;;;16.40;;
17686;SDS011;8962;52.538;13.266;2023-03-01T05:05:53;28.90;;;16.05;;
17686;SDS011;8962;52.538;13.266;2023-03-01T05:08:20;27.15;;;15.45;;
17686;SDS011;8962;52.538;13.266;2023-03-01T05:10:49;25.83;;;14.98;;
17686;SDS011;8962;52.538;13.266;2023-03-01T05:13:20;27.85;;;16.17;;
17686;SDS011;8962;52.538;13.266;2023-03-01T05:15:53;26.92;;;15.48;;
17686;SDS011;8962;52.538;13.266;2023-03-01T05:18:23;34.03;;;16.35;;
17686;SDS011;8962;52.538;13.266;2023-03-01T05:20:52;29.05;;;15.90;;
17686;SDS011;8962;52.538;13.266;2023-03-01T05:23:21;32.60;;;16.85;;
17686;SDS011;8962;52.538;13.266;2023-03-01T05:25:49;32.08;;;16.80;;
17686;SDS011;8962;52.538;13.266;2023-03-01T05:28:19;27.15;;;16.35;;
17686;SDS011;8962;52.538;13.266;2023-03-01T05:30:47;32.47;;;17.95;;
17686;SDS011;8962;52.538;13.266;2023-03-01T05:33:16;31.58;;;17.92;;
17686;SDS011;8962;52.538;13.266;2023-03-01T05:35:44;34.63;;;18.80;;
17686;SDS011;8962;52.538;13.266;2023-03-01T05:38:14;30.00;;;17.63;;
17686;SDS011;8962;52.538;13.266;2023-03-01T05:40:43;32.45;;;17.33;;
17686;SDS011;8962;52.538;13.266;2023-03-01T05:43:12;33.90;;;18.00;;
17686;SDS011;8962;52.538;13.266;2023-03-01T05:45:41;30.15;;;17.08;;
17686;SDS011;8962;52.538;13.266;2023-03-01T05:48:10;34.22;;;17.45;;
17686;SDS011;8962;52.538;13.266;2023-03-01T05:50:39;30.13;;;16.35;;
17686;SDS011;8962;52.538;13.266;2023-03-01T05:53:10;30.08;;;15.88;;
17686;SDS011;8962;52.538;13.266;2023-03-01T05:55:39;34.90;;;17.35;;
17686;SDS011;8962;52.538;13.266;2023-03-01T05:58:07;32.58;;;17.73;;
17686;SDS011;8962;52.538;13.266;2023-03-01T06:00:37;32.53;;;17.65;;
17686;SDS011;8962;52.538;13.266;2023-03-01T06:03:05;34.00;;;17.27;;
17686;SDS011;8962;52.538;13.266;2023-03-01T06:05:34;36.58;;;17.55;;
17686;SDS011;8962;52.538;13.266;2023-03-01T06:08:01;31.33;;;17.48;;
17686;SDS011;8962;52.538;13.266;2023-03-01T06:10:28;38.25;;;17.42;;
17686;SDS011;8962;52.538;13.266;2023-03-01T06:12:57;32.92;;;16.95;;
17686;SDS011;8962;52.538;13.266;2023-03-01T06:15:24;32.15;;;17.70;;
17686;SDS011;8962;52.538;13.266;2023-03-01T06:17:53;33.35;;;17.88;;
17686;SDS011;8962;52.538;13.266;2023-03-01T06:20:23;30.77;;;17.55;;
17686;SDS011;8962;52.538;13.266;2023-03-01T06:22:58;30.92;;;16.83;;
17686;SDS011;8962;52.538;13.266;2023-03-01T06:25:26;35.80;;;17.58;;
17686;SDS011;8962;52.538;13.266;2023-03-01T06:27:54;31.20;;;17.02;;
17686;SDS011;8962;52.538;13.266;2023-03-01T06:30:23;34.88;;;17.40;;
17686;SDS011;8962;52.538;13.266;2023-03-01T06:32:52;41.90;;;18.27;;
17686;SDS011;8962;52.538;13.266;2023-03-01T06:35:25;38.15;;;18.58;;
17686;SDS011;8962;52.538;13.266;2023-03-01T06:37:55;36.60;;;18.33;;
17686;SDS011;8962;52.538;13.266;2023-03-01T06:40:25;44.25;;;18.83;;
17686;SDS011;8962;52.538;13.266;2023-03-01T06:42:52;41.58;;;18.38;;
17686;SDS011;8962;52.538;13.266;2023-03-01T06:45:21;42.72;;;19.63;;
17686;SDS011;8962;52.538;13.266;2023-03-01T06:47:48;41.70;;;18.33;;
17686;SDS011;8962;52.538;13.266;2023-03-01T06:50:16;34.50;;;17.70;;
17686;SDS011;8962;52.538;13.266;2023-03-01T06:52:44;36.92;;;17.92;;
17686;SDS011;8962;52.538;13.266;2023-03-01T06:55:13;35.15;;;18.67;;
17686;SDS011;8962;52.538;13.266;2023-03-01T06:57:41;35.78;;;18.90;;
17686;SDS011;8962;52.538;13.266;2023-03-01T07:00:11;32.35;;;18.40;;
17686;SDS011;8962;52.538;13.266;2023-03-01T07:02:40;33.55;;;17.95;;
17686;SDS011;8962;52.538;13.266;2023-03-01T07:05:08;32.53;;;18.30;;
17686;SDS011;8962;52.538;13.266;2023-03-01T07:07:35;34.97;;;18.67;;
17686;SDS011;8962;52.538;13.266;2023-03-01T07:10:02;34.95;;;18.55;;
17686;SDS011;8962;52.538;13.266;2023-03-01T07:12:32;38.25;;;18.20;;
17686;SDS011;8962;52.538;13.266;2023-03-01T07:15:02;37.17;;;19.42;;
17686;SDS011;8962;52.538;13.266;2023-03-01T07:17:30;34.50;;;19.58;;
17686;SDS011;8962;52.538;13.266;2023-03-01T07:19:57;37.08;;;20.95;;
17686;SDS011;8962;52.538;13.266;2023-03-01T07:22:26;38.45;;;19.52;;
17686;SDS011;8962;52.538;13.266;2023-03-01T07:24:53;34.88;;;19.67;;
17686;SDS011;8962;52.538;13.266;2023-03-01T07:27:20;35.47;;;20.05;;
17686;SDS011;8962;52.538;13.266;2023-03-01T07:29:48;38.00;;;21.20;;
17686;SDS011;8962;52.538;13.266;2023-03-01T07:32:17;33.90;;;18.85;;
17686;SDS011;8962;52.538;13.266;2023-03-01T07:34:44;35.80;;;20.75;;
17686;SDS011;8962;52.538;13.266;2023-03-01T07:37:14;35.67;;;20.08;;
17686;SDS011;8962;52.538;13.266;2023-03-01T07:39:44;38.53;;;19.98;;
17686;SDS011;8962;52.538;13.266;2023-03-01T07:42:11;40.08;;;20.73;;
17686;SDS011;8962;52.538;13.266;2023-03-01T07:44:38;38.13;;;20.58;;
17686;SDS011;8962;52.538;13.266;2023-03-01T07:47:06;41.67;;;19.73;;
17686;SDS011;8962;52.538;13.266;2023-03-01T07:49:34;31.02;;;16.02;;
17686;SDS011;8962;52.538;13.266;2023-03-01T07:52:03;31.70;;;17.45;;
17686;SDS011;8962;52.538;13.266;2023-03-01T07:54:32;36.90;;;17.55;;
17686;SDS011;8962;52.538;13.266;2023-03-01T07:57:00;30.83;;;17.40;;
17686;SDS011;8962;52.538;13.266;2023-03-01T07:59:28;30.35;;;17.60;;
17686;SDS011;8962;52.538;13.266;2023-03-01T08:01:55;31.42;;;17.42;;
17686;SDS011;8962;52.538;13.266;2023-03-01T08:04:22;31.33;;;16.77;;
17686;SDS011;8962;52.538;13.266;2023-03-01T08:06:51;27.00;;;15.90;;
17686;SDS011;8962;52.538;13.266;2023-03-01T08:09:20;26.30;;;15.23;;
17686;SDS011;8962;52.538;13.266;2023-03-01T08:11:48;32.35;;;15.88;;
17686;SDS011;8962;52.538;13.266;2023-03-01T08:14:15;30.52;;;15.68;;
17686;SDS011;8962;52.538;13.266;2023-03-01T08:16:42;25.40;;;13.45;;
17686;SDS011;8962;52.538;13.266;2023-03-01T08:19:11;24.80;;;14.05;;
17686;SDS011;8962;52.538;13.266;2023-03-01T08:21:39;22.63;;;12.93;;
17686;SDS011;8962;52.538;13.266;2023-03-01T08:24:08;24.02;;;13.27;;
17686;SDS011;8962;52.538;13.266;2023-03-01T08:26:36;23.02;;;13.10;;
17686;SDS011;8962;52.538;13.266;2023-03-01T08:29:05;24.58;;;13.80;;
17686;SDS011;8962;52.538;13.266;2023-03-01T08:31:33;22.42;;;12.77;;
17686;SDS011;8962;52.538;13.266;2023-03-01T08:34:05;22.90;;;12.98;;
17686;SDS011;8962;52.538;13.266;2023-03-01T08:36:35;21.25;;;11.98;;
17686;SDS011;8962;52.538;13.266;2023-03-01T08:39:04;22.30;;;11.82;;
17686;SDS011;8962;52.538;13.266;2023-03-01T08:41:33;59.10;;;11.88;;
17686;SDS011;8962;52.538;13.266;2023-03-01T08:44:02;15.02;;;8.32;;
17686;SDS011;8962;52.538;13.266;2023-03-01T08:46:30;14.80;;;9.10;;
17686;SDS011;8962;52.538;13.266;2023-03-01T08:48:58;12.00;;;7.35;;
17686;SDS011;8962;52.538;13.266;2023-03-01T08:51:25;18.60;;;8.18;;
17686;SDS011;8962;52.538;13.266;2023-03-01T08:53:54;23.08;;;8.15;;
17686;SDS011;8962;52.538;13.266;2023-03-01T08:56:22;11.93;;;6.65;;
17686;SDS011;8962;52.538;13.266;2023-03-01T08:58:50;12.98;;;6.93;;
17686;SDS011;8962;52.538;13.266;2023-03-01T09:01:18;14.43;;;6.75;;
17686;SDS011;8962;52.538;13.266;2023-03-01T09:03:46;13.63;;;6.63;;
17686;SDS011;8962;52.538;13.266;2023-03-01T09:06:13;11.40;;;5.88;;
17686;SDS011;8962;52.538;13.266;2023-03-01T09:08:42;10.98;;;6.50;;
17686;SDS011;8962;52.538;13.266;2023-03-01T09:11:11;12.43;;;6.32;;
17686;SDS011;8962;52.538;13.266;2023-03-01T09:13:41;14.50;;;6.28;;
17686;SDS011;8962;52.538;13.266;2023-03-01T09:16:10;16.05;;;8.57;;
17686;SDS011;8962;52.538;13.266;2023-03-01T09:18:38;11.20;;;6.40;;
17686;SDS011;8962;52.538;13.266;2023-03-01T09:21:06;10.10;;;5.60;;
17686;SDS011;8962;52.538;13.266;2023-03-01T09:23:34;10.95;;;6.43;;
17686;SDS011;8962;52.538;13.266;2023-03-01T09:26:04;10.10;;;6.10;;
17686;SDS011;8962;52.538;13.266;2023-03-01T09:28:32;10.27;;;6.05;;
17686;SDS011;8962;52.538;13.266;2023-03-01T09:30:59;12.05;;;6.88;;
17686;SDS011;8962;52.538;13.266;2023-03-01T09:33:29;11.07;;;6.40;;
17686;SDS011;8962;52.538;13.266;2023-03-01T09:35:58;14.43;;;7.20;;
17686;SDS011;8962;52.538;13.266;2023-03-01T09:38:26;13.10;;;6.95;;
17686;SDS011;8962;52.538;13.266;2023-03-01T09:40:55;12.00;;;6.68;;
17686;SDS011;8962;52.538;13.266;2023-03-01T09:43:23;15.73;;;8.00;;
17686;SDS011;8962;52.538;13.266;2023-03-01T09:45:58;11.93;;;5.85;;
17686;SDS011;8962;52.538;13.266;2023-03-01T09:48:30;11.45;;;6.85;;
17686;SDS011;8962;52.538;13.266;2023-03-01T09:51:07;12.50;;;6.40;;
17686;SDS011;8962;52.538;13.266;2023-03-01T09:53:45;15.45;;;7.15;;
17686;SDS011;8962;52.538;13.266;2023-03-01T09:56:13;12.75;;;6.82;;
17686;SDS011;8962;52.538;13.266;2023-03-01T09:58:49;11.82;;;6.22;;
17686;SDS011;8962;52.538;13.266;2023-03-01T10:04:20;12.63;;;6.65;;
17686;SDS011;8962;52.538;13.266;2023-03-01T10:07:07;8.85;;;5.65;;
17686;SDS011;8962;52.538;13.266;2023-03-01T10:09:44;7.65;;;5.20;;
17686;SDS011;8962;52.538;13.266;2023-03-01T10:12:14;8.32;;;4.63;;
17686;SDS011;8962;52.538;13.266;2023-03-01T10:14:44;8.45;;;4.57;;
17686;SDS011;8962;52.538;13.266;2023-03-01T10:17:23;13.13;;;5.40;;
17686;SDS011;8962;52.538;13.266;2023-03-01T10:19:57;8.27;;;4.60;;
17686;SDS011;8962;52.538;13.266;2023-03-01T10:22:43;8.63;;;4.50;;
17686;SDS011;8962;52.538;13.266;2023-03-01T10:25:15;8.18;;;4.35;;
17686;SDS011;8962;52.538;13.266;2023-03-01T10:27:49;8.27;;;4.57;;
17686;SDS011;8962;52.538;13.266;2023-03-01T10:30:19;8.05;;;4.93;;
17686;SDS011;8962;52.538;13.266;2023-03-01T10:32:49;7.80;;;4.80;;
17686;SDS011;8962;52.538;13.266;2023-03-01T10:35:22;11.27;;;5.30;;
17686;SDS011;8962;52.538;13.266;2023-03-01T10:37:57;9.13;;;5.45;;
17686;SDS011;8962;52.538;13.266;2023-03-01T10:40:29;9.75;;;5.50;;
17686;SDS011;8962;52.538;13.266;2023-03-01T10:42:57;9.57;;;5.13;;
17686;SDS011;8962;52.538;13.266;2023-03-01T10:45:30;10.73;;;5.60;;
17686;SDS011;8962;52.538;13.266;2023-03-01T10:48:04;9.20;;;5.72;;
17686;SDS011;8962;52.538;13.266;2023-03-01T10:50:38;8.95;;;5.15;;
17686;SDS011;8962;52.538;13.266;2023-03-01T10:53:08;8.98;;;5.10;;
17686;SDS011;8962;52.538;13.266;2023-03-01T10:55:49;9.63;;;5.22;;
17686;SDS011;8962;52.538;13.266;2023-03-01T10:58:25;11.68;;;5.53;;
17686;SDS011;8962;52.538;13.266;2023-03-01T11:00:53;9.52;;;5.38;;
17686;SDS011;8962;52.538;13.266;2023-03-01T11:03:23;7.72;;;4.65;;
17686;SDS011;8962;52.538;13.266;2023-03-01T11:08:47;7.90;;;4.90;;
17686;SDS011;8962;52.538;13.266;2023-03-01T11:11:23;10.43;;;5.38;;
17686;SDS011;8962;52.538;13.266;2023-03-01T11:13:57;11.15;;;5.03;;
17686;SDS011;8962;52.538;13.266;2023-03-01T11:16:27;9.45;;;5.55;;
17686;SDS011;8962;52.538;13.266;2023-03-01T11:19:01;9.50;;;4.57;;
17686;SDS011;8962;52.538;13.266;2023-03-01T11:21:42;6.50;;;3.53;;
17686;SDS011;8962;52.538;13.266;2023-03-01T11:24:14;8.27;;;4.00;;
17686;SDS011;8962;52.538;13.266;2023-03-01T11:26:44;11.45;;;4.82;;
17686;SDS011;8962;52.538;13.266;2023-03-01T11:29:17;10.32;;;4.68;;
17686;SDS011;8962;52.538;13.266;2023-03-01T11:31:54;5.85;;;3.65;;
17686;SDS011;8962;52.538;13.266;2023-03-01T11:34:29;9.00;;;3.90;;
17686;SDS011;8962;52.538;13.266;2023-03-01T11:37:12;12.25;;;4.80;;
17686;SDS011;8962;52.538;13.266;2023-03-01T11:39:52;7.85;;;4.50;;
17686;SDS011;8962;52.538;13.266;2023-03-01T11:42:27;7.95;;;4.28;;
17686;SDS011;8962;52.538;13.266;2023-03-01T11:45:06;9.90;;;4.90;;
17686;SDS011;8962;52.538;13.266;2023-03-01T11:47:49;11.90;;;4.88;;
17686;SDS011;8962;52.538;13.266;2023-03-01T11:50:39;14.50;;;4.90;;
17686;SDS011;8962;52.538;13.266;2023-03-01T11:53:18;9.20;;;4.93;;
17686;SDS011;8962;52.538;13.266;2023-03-01T11:56:03;6.45;;;4.43;;
17686;SDS011;8962;52.538;13.266;2023-03-01T11:58:45;6.72;;;4.20;;
17686;SDS011;8962;52.538;13.266;2023-03-01T12:01:39;7.32;;;3.83;;
17686;SDS011;8962;52.538;13.266;2023-03-01T12:04:18;15.10;;;6.97;;
17686;SDS011;8962;52.538;13.266;2023-03-01T12:07:01;8.10;;;3.92;;
17686;SDS011;8962;52.538;13.266;2023-03-01T12:09:45;7.35;;;3.97;;
17686;SDS011;8962;52.538;13.266;2023-03-01T12:12:25;4.80;;;3.05;;
17686;SDS011;8962;52.538;13.266;2023-03-01T12:18:04;4.95;;;3.30;;
17686;SDS011;8962;52.538;13.266;2023-03-01T12:20:51;8.95;;;4.47;;
17686;SDS011;8962;52.538;13.266;2023-03-01T12:23:43;5.95;;;3.92;;
17686;SDS011;8962;52.538;13.266;2023-03-01T12:26:40;8.20;;;4.30;;
17686;SDS011;8962;52.538;13.266;2023-03-01T12:29:23;5.68;;;3.72;;
17686;SDS011;8962;52.538;13.266;2023-03-01T12:34:48;6.53;;;3.65;;
17686;SDS011;8962;52.538;13.266;2023-03-01T12:37:42;7.25;;;4.03;;
17686;SDS011;8962;52.538;13.266;2023-03-01T12:40:21;5.95;;;4.00;;
17686;SDS011;8962;52.538;13.266;2023-03-01T12:43:10;8.57;;;4.18;;
17686;SDS011;8962;52.538;13.266;2023-03-01T12:45:54;8.75;;;4.05;;
17686;SDS011;8962;52.538;13.266;2023-03-01T12:48:50;6.63;;;3.95;;
17686;SDS011;8962;52.538;13.266;2023-03-01T12:51:26;7.32;;;3.78;;
17686;SDS011;8962;52.538;13.266;2023-03-01T12:53:58;5.18;;;3.35;;
17686;SDS011;8962;52.538;13.266;2023-03-01T12:56:29;4.80;;;3.30;;
17686;SDS011;8962;52.538;13.266;2023-03-01T12:59:05;7.93;;;3.25;;
17686;SDS011;8962;52.538;13.266;2023-03-01T13:01:40;9.38;;;5.70;;
17686;SDS011;8962;52.538;13.266;2023-03-01T13:04:16;6.88;;;4.22;;
17686;SDS011;8962;52.538;13.266;2023-03-01T13:06:53;8.82;;;4.00;;
17686;SDS011;8962;52.538;13.266;2023-03-01T13:09:33;6.55;;;3.42;;
17686;SDS011;8962;52.538;13.266;2023-03-01T13:12:03;7.30;;;3.70;;
17686;SDS011;8962;52.538;13.266;2023-03-01T13:15:01;6.03;;;3.78;;
17686;SDS011;8962;52.538;13.266;2023-03-01T13:17:32;5.68;;;3.38;;
17686;SDS011;8962;52.538;13.266;2023-03-01T13:20:11;5.85;;;3.60;;
17686;SDS011;8962;52.538;13.266;2023-03-01T13:22:41;5.47;;;3.38;;
17686;SDS011;8962;52.538;13.266;2023-03-01T13:25:12;4.38;;;3.13;;
17686;SDS011;8962;52.538;13.266;2023-03-01T13:27:43;4.07;;;3.10;;
17686;SDS011;8962;52.538;13.266;2023-03-01T13:36:06;9.05;;;5.57;;
17686;SDS011;8962;52.538;13.266;2023-03-01T13:38:45;7.38;;;3.60;;
17686;SDS011;8962;52.538;13.266;2023-03-01T13:44:20;4.75;;;3.25;;
17686;SDS011;8962;52.538;13.266;2023-03-01T13:46:53;4.35;;;3.10;;
17686;SDS011;8962;52.538;13.266;2023-03-01T13:49:25;6.32;;;3.47;;
17686;SDS011;8962;52.538;13.266;2023-03-01T13:51:54;5.05;;;3.00;;
17686;SDS011;8962;52.538;13.266;2023-03-01T13:54:25;4.38;;;2.97;;
17686;SDS011;8962;52.538;13.266;2023-03-01T13:56:55;5.22;;;3.17;;
17686;SDS011;8962;52.538;13.266;2023-03-01T13:59:24;7.30;;;3.40;;
17686;SDS011;8962;52.538;13.266;2023-03-01T14:01:55;8.07;;;3.45;;
17686;SDS011;8962;52.538;13.266;2023-03-01T14:04:23;5.25;;;3.13;;
17686;SDS011;8962;52.538;13.266;2023-03-01T14:07:08;4.95;;;2.90;;
17686;SDS011;8962;52.538;13.266;2023-03-01T14:09:37;4.10;;;2.80;;
17686;SDS011;8962;52.538;13.266;2023-03-01T14:12:12;4.18;;;2.60;;
17686;SDS011;8962;52.538;13.266;2023-03-01T14:14:52;5.25;;;2.42;;
17686;SDS011;8962;52.538;13.266;2023-03-01T14:17:33;4.15;;;2.53;;
17686;SDS011;8962;52.538;13.266;2023-03-01T14:20:11;4.53;;;2.75;;
17686;SDS011;8962;52.538;13.266;2023-03-01T14:22:43;4.75;;;2.63;;
17686;SDS011;8962;52.538;13.266;2023-03-01T14:25:20;5.80;;;2.90;;
17686;SDS011;8962;52.538;13.266;2023-03-01T14:27:54;3.15;;;2.40;;
17686;SDS011;8962;52.538;13.266;2023-03-01T14:30:27;3.75;;;2.55;;
17686;SDS011;8962;52.538;13.266;2023-03-01T14:33:01;3.95;;;2.65;;
17686;SDS011;8962;52.538;13.266;2023-03-01T14:35:31;5.00;;;2.28;;
17686;SDS011;8962;52.538;13.266;2023-03-01T14:38:01;4.80;;;2.05;;
17686;SDS011;8962;52.538;13.266;2023-03-01T14:40:29;4.50;;;2.25;;
17686;SDS011;8962;52.538;13.266;2023-03-01T14:43:00;3.40;;;2.42;;
17686;SDS011;8962;52.538;13.266;2023-03-01T14:45:35;3.45;;;2.08;;
17686;SDS011;8962;52.538;13.266;2023-03-01T14:48:04;5.72;;;3.00;;
17686;SDS011;8962;52.538;13.266;2023-03-01T14:50:35;5.68;;;2.72;;
17686;SDS011;8962;52.538;13.266;2023-03-01T14:53:12;5.60;;;3.08;;
17686;SDS011;8962;52.538;13.266;2023-03-01T14:55:44;4.90;;;2.20;;
17686;SDS011;8962;52.538;13.266;2023-03-01T14:58:15;3.40;;;2.00;;
17686;SDS011;8962;52.538;13.266;2023-03-01T15:00:48;5.68;;;2.60;;
17686;SDS011;8962;52.538;13.266;2023-03-01T15:03:20;3.53;;;1.80;;
17686;SDS011;8962;52.538;13.266;2023-03-01T15:05:52;5.00;;;1.70;;
17686;SDS011;8962;52.538;13.266;2023-03-01T15:08:21;4.78;;;2.00;;
17686;SDS011;8962;52.538;13.266;2023-03-01T15:10:59;4.40;;;2.53;;
17686;SDS011;8962;52.538;13.266;2023-03-01T15:13:29;4.20;;;2.40;;
17686;SDS011;8962;52.538;13.266;2023-03-01T15:16:03;4.95;;;2.20;;
17686;SDS011;8962;52.538;13.266;2023-03-01T15:18:34;3.60;;;2.28;;